Beech Bottom, West Virginia
Current Conditions -  °F | °C
As of 2:53 AM on Saturday 20 Dec 2014 (Local Time) from KHLG Reporting Station
Overcast Overcast  
Wind Chill: 29°   Ceiling: 2400
Heat Index: 29°   Visibility: 10mi
Dew Point: 19°   Wind: 3mph
Humidity: 67%   Direction: 90°E
Pressure: 30.23"   Gusts: NA
Location:  40.23°N, 80.65°W
Report Text: KHLG 200753Z AUTO 09003KT 10SM OVC024 M02/M07 A3023 RMK AO2 SLP252 T10171072
Loading
Personal Weather Stations






























Interactive Weather Map New forecast layout! Learn more

10-Day Weather Forecast

Advertisements
Track Severe Weather on mobile